Time;durP1;ratioP1;P1;durP2;ratioP2;P2;SDS_P1;SDS_P2;PMS_P1;PMS_P2;Temp;Humidity;BMP_temperature;BMP_pressure;BME280_temperature;BME280_humidity;BME280_pressure;Samples;Min_cycle;Max_cycle;Signal;HPM_P1;HPM_P2
2021/01/11 00:01:08;;;;;;;2.20;0.97;;;;;;;-3.25;87.81;100683.28;5035844;28;20380;-72
2021/01/11 00:03:35;;;;;;;6.07;0.87;;;;;;;-3.20;87.78;100694.59;5024600;28;20202;-72
2021/01/11 00:06:03;;;;;;;8.27;1.30;;;;;;;-3.28;87.77;100696.44;5049242;28;21038;-72
2021/01/11 00:08:31;;;;;;;0.90;0.60;;;;;;;-3.37;86.98;100686.03;5035732;28;20689;-72
2021/01/11 00:10:59;;;;;;;1.20;0.97;;;;;;;-3.42;86.83;100695.72;5017973;28;20210;-72
2021/01/11 00:13:26;;;;;;;1.27;0.60;;;;;;;-3.52;86.53;100702.84;5009130;28;20238;-72
2021/01/11 00:15:53;;;;;;;2.33;1.03;;;;;;;-3.58;86.85;100693.31;5009048;28;20202;-72
2021/01/11 00:18:20;;;;;;;2.73;0.50;;;;;;;-3.64;87.06;100690.75;5016688;28;20271;-72
2021/01/11 00:20:47;;;;;;;1.07;0.93;;;;;;;-3.70;87.29;100688.16;5034097;28;20665;-72
2021/01/11 00:23:15;;;;;;;4.10;0.53;;;;;;;-3.64;87.34;100687.25;5039599;28;20692;-72
2021/01/11 00:25:42;;;;;;;82.57;31.23;;;;;;;-3.62;87.45;100690.72;5031168;28;20227;-72
2021/01/11 00:28:10;;;;;;;441.67;131.67;;;;;;;-3.63;87.51;100689.84;5028987;28;20565;-72
2021/01/11 00:30:37;;;;;;;62.47;19.43;;;;;;;-3.59;87.64;100673.19;5032160;28;20688;-72
2021/01/11 00:33:04;;;;;;;29.53;8.23;;;;;;;-3.79;87.44;100649.78;5018418;28;20729;-72
2021/01/11 00:35:31;;;;;;;7.27;2.97;;;;;;;-3.61;87.85;100681.97;5048646;28;20201;-72
2021/01/11 00:37:58;;;;;;;6.10;2.47;;;;;;;-3.62;87.48;100685.47;5031606;28;20206;-72
2021/01/11 00:40:25;;;;;;;1.97;1.37;;;;;;;-3.74;87.09;100678.59;5020231;28;20207;-72
2021/01/11 00:42:53;;;;;;;1.57;1.47;;;;;;;-3.78;86.74;100680.38;5010551;28;20572;-72
2021/01/11 00:45:21;;;;;;;4.00;1.10;;;;;;;-3.80;87.01;100681.28;5041596;28;20225;-72
2021/01/11 00:47:48;;;;;;;2.13;1.23;;;;;;;-3.75;87.43;100684.72;5019675;28;20203;-72
2021/01/11 00:50:15;;;;;;;3.77;1.57;;;;;;;-3.70;87.73;100682.03;5047891;28;20202;-72
2021/01/11 00:52:45;;;;;;;2.10;1.10;;;;;;;-3.73;87.58;100689.94;5039624;28;20689;-72
2021/01/11 00:55:20;;;;;;;1.50;1.20;;;;;;;-3.72;87.57;100694.31;5009477;28;20253;-72
2021/01/11 00:57:56;;;;;;;3.10;1.53;;;;;;;-3.68;87.69;100693.38;5010521;28;20665;-71
2021/01/11 01:00:28;;;;;;;3.13;1.37;;;;;;;-3.65;88.11;100696.00;5007553;28;20654;-72
2021/01/11 01:03:06;;;;;;;0.80;0.70;;;;;;;-3.62;87.86;100691.59;5047077;28;20218;-72
2021/01/11 01:05:33;;;;;;;3.13;1.43;;;;;;;-3.65;87.88;100686.38;5048416;28;20719;-72
2021/01/11 01:08:01;;;;;;;0.57;0.57;;;;;;;-3.66;87.66;100689.03;5036237;28;20301;-72
2021/01/11 01:10:28;;;;;;;4.83;2.37;;;;;;;-3.71;87.66;100681.19;5028292;28;20199;-72
2021/01/11 01:12:55;;;;;;;1.53;1.27;;;;;;;-3.69;87.72;100681.16;5016847;28;20293;-72
2021/01/11 01:15:22;;;;;;;1.20;1.10;;;;;;;-3.67;87.73;100682.91;5008551;28;20222;-72
2021/01/11 01:17:51;;;;;;;1.70;1.00;;;;;;;-3.64;88.05;100685.50;5009419;28;20564;-72
2021/01/11 01:20:18;;;;;;;2.40;1.10;;;;;;;-3.58;87.96;100687.19;5007740;28;20214;-72
2021/01/11 01:22:46;;;;;;;1.63;1.00;;;;;;;-3.54;88.08;100692.38;5022635;28;20281;-72
2021/01/11 01:25:14;;;;;;;1.07;0.70;;;;;;;-3.47;88.36;100690.53;5037725;28;20563;-72
2021/01/11 01:27:42;;;;;;;1.10;0.67;;;;;;;-3.42;88.52;100693.97;5049074;28;20660;-72
2021/01/11 01:30:10;;;;;;;2.73;0.97;;;;;;;-3.89;88.49;100607.97;5055645;28;20198;-72
2021/01/11 01:32:38;;;;;;;0.30;0.30;;;;;;;-3.26;88.80;100697.31;5022069;28;20290;-72
2021/01/11 01:35:11;;;;;;;0.80;0.73;;;;;;;-3.29;89.03;100679.84;5045755;28;20204;-72
2021/01/11 01:37:38;;;;;;;0.23;0.23;;;;;;;-3.20;88.73;100690.22;5041765;28;20199;-72
2021/01/11 01:40:07;;;;;;;5.77;0.70;;;;;;;-3.11;88.74;100699.72;5030472;28;20237;-72
2021/01/11 01:42:34;;;;;;;2.83;1.10;;;;;;;-3.07;88.66;100690.91;5028504;28;20199;-72
2021/01/11 01:45:02;;;;;;;0.67;0.60;;;;;;;-3.07;88.54;100687.41;5009499;28;20710;-72
2021/01/11 01:47:31;;;;;;;5.50;1.43;;;;;;;-3.04;88.42;100683.03;5011437;28;20678;-72
2021/01/11 01:50:00;;;;;;;3.00;0.97;;;;;;;-3.03;88.59;100686.50;5057911;28;20206;-72
2021/01/11 01:52:28;;;;;;;1.57;0.90;;;;;;;-3.01;88.64;100682.97;5047430;28;20216;-72
2021/01/11 01:54:55;;;;;;;1.00;0.77;;;;;;;-2.98;88.77;100682.94;5047304;28;20197;-72
2021/01/11 01:57:23;;;;;;;1.43;0.57;;;;;;;-2.94;88.78;100676.75;5045680;28;20197;-72
2021/01/11 01:59:50;;;;;;;1.03;0.97;;;;;;;-2.91;88.95;100687.19;5027900;28;20207;-72
2021/01/11 02:02:19;;;;;;;1.80;1.10;;;;;;;-2.86;88.74;100677.50;5022876;28;20630;-72
2021/01/11 02:04:46;;;;;;;1.33;0.77;;;;;;;-2.85;88.73;100679.22;5039728;28;20222;-72
2021/01/11 02:07:23;;;;;;;2.20;0.50;;;;;;;-2.83;88.79;100677.44;5029227;28;20203;-72
2021/01/11 02:10:02;;;;;;;2.20;0.87;;;;;;;-2.83;88.68;100674.81;5033265;28;20635;-72
2021/01/11 02:12:42;;;;;;;1999.90;999.90;;;;;;;-2.75;88.80;100673.88;5038303;28;20216;-72
2021/01/11 02:15:14;;;;;;;487.67;174.13;;;;;;;-2.72;88.54;100679.06;5045382;28;20194;-72
2021/01/11 02:17:47;;;;;;;30.80;11.83;;;;;;;-2.63;89.06;100681.56;5018561;28;20666;-72
2021/01/11 02:20:50;;;;;;;4.10;2.93;;;;;;;-2.57;89.02;100677.06;5010473;28;20619;-72
2021/01/11 02:23:36;;;;;;;101.47;62.00;;;;;;;-2.66;88.09;100674.59;5024688;28;20206;-72
2021/01/11 02:26:10;;;;;;;7.13;2.63;;;;;;;-2.61;88.31;100674.50;5031501;28;20222;-72
2021/01/11 02:28:51;;;;;;;1.27;1.17;;;;;;;-2.59;88.38;100667.47;5006987;28;20674;-72
2021/01/11 02:31:23;;;;;;;3.77;1.47;;;;;;;-2.59;88.70;100665.72;5024065;28;20223;-72
2021/01/11 02:33:53;;;;;;;2.77;1.43;;;;;;;-2.52;88.98;100674.34;5034778;28;20238;-72
2021/01/11 02:36:21;;;;;;;3.13;1.00;;;;;;;-2.50;88.67;100667.31;5026510;28;20199;-72
2021/01/11 02:38:49;;;;;;;2.90;2.20;;;;;;;-2.50;88.45;100670.81;5021873;28;20982;-72
2021/01/11 02:41:17;;;;;;;2.43;1.40;;;;;;;-2.47;88.59;100669.91;5020373;28;20199;-72
2021/01/11 02:43:44;;;;;;;1.83;1.53;;;;;;;-2.47;88.98;100662.00;5013172;28;20207;-72
2021/01/11 02:46:12;;;;;;;2.90;1.70;;;;;;;-2.53;88.81;100633.19;5010667;28;20238;-72
2021/01/11 02:48:48;;;;;;;8.80;0.70;;;;;;;-2.41;88.75;100656.69;5029116;28;20203;-72
2021/01/11 02:51:21;;;;;;;1.93;0.80;;;;;;;-2.42;88.48;100649.69;5031970;28;20549;-72
2021/01/11 02:53:59;;;;;;;0.50;0.50;;;;;;;-2.43;88.40;100647.94;5018328;28;20211;-72
2021/01/11 02:56:32;;;;;;;3.37;0.80;;;;;;;-2.40;88.72;100637.38;5043221;28;20206;-72
2021/01/11 02:59:09;;;;;;;0.87;0.83;;;;;;;-2.36;88.80;100635.56;5011250;28;20226;-72
2021/01/11 03:01:45;;;;;;;0.93;0.93;;;;;;;-2.30;89.29;100640.72;5012073;28;20210;-72
2021/01/11 03:04:20;;;;;;;5.23;4.70;;;;;;;-2.22;89.29;100637.06;5040281;28;20236;-73
2021/01/11 03:06:58;;;;;;;0.80;0.80;;;;;;;-2.30;89.12;100612.66;5046002;28;20229;-72
2021/01/11 03:09:25;;;;;;;2.83;0.93;;;;;;;-2.09;89.06;100632.47;5015173;28;20202;-73
2021/01/11 03:11:52;;;;;;;1.00;0.83;;;;;;;-2.04;89.00;100635.00;5029053;28;20202;-72
2021/01/11 03:14:22;;;;;;;2.17;1.03;;;;;;;-2.01;89.27;100625.28;5011436;28;20192;-72
2021/01/11 03:16:50;;;;;;;2.10;1.20;;;;;;;-2.00;89.00;100634.03;5029926;28;20230;-72
2021/01/11 03:19:18;;;;;;;1.10;0.73;;;;;;;-2.00;88.74;100628.78;5042622;28;20233;-72
2021/01/11 03:21:45;;;;;;;0.50;0.50;;;;;;;-2.09;88.61;100602.66;5051243;28;20194;-73
2021/01/11 03:24:16;;;;;;;0.60;0.60;;;;;;;-2.11;88.25;100623.72;5032553;28;20269;-72
2021/01/11 03:26:44;;;;;;;0.20;0.20;;;;;;;-2.19;87.69;100615.94;5042294;28;20202;-73
2021/01/11 03:29:11;;;;;;;0.97;0.87;;;;;;;-2.27;87.68;100617.00;5049751;28;20205;-73
2021/01/11 03:31:39;;;;;;;7.00;1.20;;;;;;;-2.31;87.62;100616.19;5030790;28;20202;-72
2021/01/11 03:34:06;;;;;;;2.00;0.70;;;;;;;-2.45;87.50;100602.38;5041580;28;20317;-72
2021/01/11 03:36:35;;;;;;;2.57;0.87;;;;;;;-2.42;87.53;100612.00;5043333;28;20694;-72
2021/01/11 03:39:03;;;;;;;0.70;0.70;;;;;;;-2.42;87.59;100606.75;5065398;28;20284;-72
2021/01/11 03:41:33;;;;;;;1.23;1.00;;;;;;;-2.51;87.73;100594.63;5031268;28;20253;-72
2021/01/11 03:44:00;;;;;;;0.87;0.73;;;;;;;-2.50;87.60;100599.84;5036896;28;20206;-72
2021/01/11 03:46:29;;;;;;;0.53;0.53;;;;;;;-2.54;87.53;100592.03;5028237;28;20225;-72
2021/01/11 03:48:58;;;;;;;1.60;1.50;;;;;;;-2.61;87.24;100585.16;5028148;28;20212;-72
2021/01/11 03:51:25;;;;;;;0.57;0.57;;;;;;;-2.65;87.07;100578.22;5050282;28;20551;-72
2021/01/11 03:53:53;;;;;;;3.87;0.73;;;;;;;-2.72;87.22;100579.22;5034254;28;20209;-72
2021/01/11 03:56:22;;;;;;;1.50;1.00;;;;;;;-2.74;87.40;100576.63;5030845;28;20200;-73
2021/01/11 03:58:49;;;;;;;2.00;0.70;;;;;;;-2.71;87.79;100573.06;5033463;28;20207;-72
2021/01/11 04:01:16;;;;;;;1999.90;999.90;;;;;;;-2.65;88.38;100567.72;5010127;28;20210;-72
2021/01/11 04:03:43;;;;;;;1161.57;372.57;;;;;;;-2.58;88.66;100569.34;5010571;28;20226;-72
2021/01/11 04:06:10;;;;;;;66.70;22.53;;;;;;;-2.54;88.45;100573.66;5011665;28;20225;-72
2021/01/11 04:08:37;;;;;;;13.00;5.67;;;;;;;-2.62;87.69;100572.91;5042915;28;20289;-71
2021/01/11 04:11:07;;;;;;;15.70;6.73;;;;;;;-2.62;87.73;100575.53;5032037;28;20199;-72
2021/01/11 04:13:35;;;;;;;13.87;5.50;;;;;;;-2.57;88.01;100582.44;5039607;28;20213;-71
2021/01/11 04:16:03;;;;;;;7.80;4.43;;;;;;;-2.53;88.22;100563.09;5028667;28;20190;-72
2021/01/11 04:18:30;;;;;;;9.87;4.67;;;;;;;-2.51;88.52;100557.81;5034668;28;20614;-73
2021/01/11 04:20:58;;;;;;;5.93;2.57;;;;;;;-2.55;87.83;100554.38;5039103;28;20206;-72
2021/01/11 04:23:25;;;;;;;6.47;2.90;;;;;;;-2.57;87.93;100544.78;5048034;28;20580;-72
2021/01/11 04:25:52;;;;;;;4.97;1.53;;;;;;;-2.65;87.81;100539.69;5047959;28;20228;-72
2021/01/11 04:28:20;;;;;;;3.30;1.37;;;;;;;-2.72;87.12;100535.44;5047919;28;20201;-72
2021/01/11 04:30:47;;;;;;;6.60;2.13;;;;;;;-2.87;86.65;100525.16;5047470;28;20194;-72
2021/01/11 04:33:14;;;;;;;1.77;1.17;;;;;;;-3.01;87.12;100507.03;5035216;28;20238;-72
2021/01/11 04:35:41;;;;;;;4.03;1.20;;;;;;;-2.89;87.80;100506.81;5014175;28;20217;-72
2021/01/11 04:38:08;;;;;;;0.77;0.77;;;;;;;-2.90;87.84;100505.06;5014566;28;20576;-72
2021/01/11 04:40:35;;;;;;;1.13;1.13;;;;;;;-2.84;87.95;100512.84;5025205;28;20717;-72
2021/01/11 04:43:05;;;;;;;2.73;1.07;;;;;;;-3.20;87.66;100474.06;5027791;28;20209;-72
2021/01/11 04:45:33;;;;;;;0.97;0.87;;;;;;;-2.87;87.90;100530.41;5027851;28;20226;-72
2021/01/11 04:48:01;;;;;;;9.33;7.53;;;;;;;-2.85;88.40;100539.13;5027543;28;20220;-72
2021/01/11 04:50:29;;;;;;;4.63;2.43;;;;;;;-2.77;88.80;100537.25;5028838;28;20204;-72
2021/01/11 04:52:57;;;;;;;1.77;0.97;;;;;;;-2.71;89.09;100542.41;5013715;28;20249;-72
2021/01/11 04:55:24;;;;;;;2.27;0.80;;;;;;;-2.78;88.25;100542.53;5008723;28;20191;-72
2021/01/11 04:57:54;;;;;;;1.83;1.10;;;;;;;-2.89;87.65;100538.31;5008724;28;20195;-72
2021/01/11 05:00:24;;;;;;;2.73;0.67;;;;;;;-2.94;87.65;100545.41;5008401;28;20203;-72
2021/01/11 05:02:58;;;;;;;5.00;1.03;;;;;;;-2.96;87.92;100531.44;5016811;28;20249;-72
2021/01/11 05:05:26;;;;;;;0.83;0.83;;;;;;;-2.95;88.05;100534.94;5028372;28;20229;-72
2021/01/11 05:07:53;;;;;;;1.17;1.03;;;;;;;-3.17;87.95;100506.38;5027162;28;20202;-72
2021/01/11 05:10:22;;;;;;;0.80;0.70;;;;;;;-3.04;87.47;100535.97;5031002;28;20281;-72
2021/01/11 05:12:56;;;;;;;1.30;0.70;;;;;;;-3.29;87.69;100505.72;5027898;28;20274;-73
2021/01/11 05:15:25;;;;;;;3.70;1.10;;;;;;;-3.26;86.47;100524.03;5023149;28;20201;-72
2021/01/11 05:17:54;;;;;;;1.03;0.63;;;;;;;-3.19;86.91;100523.06;5040240;28;20258;-72
2021/01/11 05:20:24;;;;;;;2.00;0.93;;;;;;;-3.12;87.70;100524.69;5022246;28;20202;-72
2021/01/11 05:22:53;;;;;;;0.70;0.70;;;;;;;-3.25;87.60;100502.16;5014594;28;20195;-72
2021/01/11 05:25:22;;;;;;;0.50;0.43;;;;;;;-3.12;87.39;100515.03;5019424;28;20206;-72
2021/01/11 05:28:10;;;;;;;6.97;0.80;;;;;;;-3.11;87.40;100515.91;5018946;28;20199;-71
2021/01/11 05:30:40;;;;;;;0.43;0.43;;;;;;;-3.17;87.58;100495.88;5019419;28;20294;-73
2021/01/11 05:33:10;;;;;;;1.57;0.63;;;;;;;-3.13;87.83;100504.56;5020555;28;20494;-72
2021/01/11 05:35:38;;;;;;;6.80;1.03;;;;;;;-3.11;87.84;100502.78;5016694;28;20202;-72
2021/01/11 05:38:15;;;;;;;1.30;0.77;;;;;;;-3.07;88.34;100509.72;5017267;28;20195;-72
2021/01/11 05:40:44;;;;;;;1.10;1.10;;;;;;;-3.00;88.49;100515.75;5018127;28;20252;-72
2021/01/11 05:43:19;;;;;;;5.00;2.43;;;;;;;-3.01;88.36;100511.41;5016557;28;20654;-72
2021/01/11 05:45:46;;;;;;;1.40;0.90;;;;;;;-3.04;87.78;100504.44;5021447;28;20236;-73
2021/01/11 05:48:15;;;;;;;2.17;1.77;;;;;;;-2.97;88.73;100502.56;5020743;28;20245;-72
2021/01/11 05:50:44;;;;;;;39.73;22.80;;;;;;;-2.87;89.04;100497.13;5015236;28;20209;-72
2021/01/11 05:53:16;;;;;;;55.60;33.80;;;;;;;-2.76;89.31;100502.19;5019031;28;20207;-72
2021/01/11 05:55:44;;;;;;;1.63;1.43;;;;;;;-2.69;89.69;100490.69;5018900;28;20223;-72
2021/01/11 05:58:11;;;;;;;1.70;1.60;;;;;;;-2.67;89.87;100464.41;5015819;28;20202;-72
2021/01/11 06:00:40;;;;;;;2.33;1.37;;;;;;;-2.34;89.91;100500.56;5015173;28;20210;-73
2021/01/11 06:03:09;;;;;;;0.97;0.93;;;;;;;-2.28;89.99;100492.53;5017572;28;20196;-72
2021/01/11 06:05:37;;;;;;;0.90;0.87;;;;;;;-2.21;89.69;100495.91;5017602;28;20591;-73
2021/01/11 06:08:07;;;;;;;1.17;1.07;;;;;;;-2.24;89.11;100488.09;5017011;28;20245;-73
2021/01/11 06:10:35;;;;;;;3.03;0.83;;;;;;;-2.21;88.71;100488.91;5020014;28;20216;-73
2021/01/11 06:13:07;;;;;;;1.07;0.93;;;;;;;-2.20;88.86;100481.88;5014469;28;20204;-73
2021/01/11 06:15:35;;;;;;;1.50;0.70;;;;;;;-2.14;89.15;100471.25;5016355;28;20666;-72
2021/01/11 06:18:07;;;;;;;0.70;0.70;;;;;;;-2.16;88.99;100466.91;5011186;28;20278;-73
2021/01/11 06:20:35;;;;;;;2.30;1.00;;;;;;;-2.02;89.23;100478.00;5017697;28;20209;-73
2021/01/11 06:23:06;;;;;;;1.30;0.83;;;;;;;-1.94;89.41;100473.44;5021458;28;20202;-72
2021/01/11 06:25:34;;;;;;;1.63;0.60;;;;;;;-1.87;89.24;100477.66;5014787;28;20737;-72
2021/01/11 06:28:04;;;;;;;3.93;1.13;;;;;;;-1.82;89.63;100477.59;5020857;28;20199;-73
2021/01/11 06:30:36;;;;;;;2.10;0.57;;;;;;;-1.75;89.47;100474.78;5019828;28;20282;-72
2021/01/11 06:33:08;;;;;;;2.17;0.67;;;;;;;-1.69;89.43;100466.75;5014505;28;20235;-72
2021/01/11 06:35:37;;;;;;;0.43;0.43;;;;;;;-1.65;89.42;100455.25;5020307;28;20291;-72
2021/01/11 06:38:20;;;;;;;1.27;0.63;;;;;;;-1.58;89.35;100464.75;5020083;28;20199;-73
2021/01/11 06:40:52;;;;;;;0.70;0.70;;;;;;;-1.75;89.33;100432.69;5018067;28;20213;-73
2021/01/11 06:43:21;;;;;;;0.93;0.87;;;;;;;-1.49;89.27;100471.59;5017698;28;20203;-73
2021/01/11 06:45:50;;;;;;;0.43;0.43;;;;;;;-1.52;88.76;100476.91;5019992;28;20219;-73
2021/01/11 06:48:19;;;;;;;3.00;0.70;;;;;;;-1.62;88.85;100460.44;5030874;28;20774;-73
2021/01/11 06:50:48;;;;;;;0.43;0.43;;;;;;;-1.44;88.69;100480.25;5024286;28;20197;-73
2021/01/11 06:53:27;;;;;;;0.97;0.70;;;;;;;-1.41;89.17;100481.94;5025034;28;20228;-72
2021/01/11 06:56:05;;;;;;;1.67;0.60;;;;;;;-1.42;88.72;100482.84;5023798;28;20203;-72
2021/01/11 06:58:34;;;;;;;0.90;0.90;;;;;;;-1.41;88.95;100468.75;5026310;28;20199;-73
2021/01/11 07:01:02;;;;;;;1.87;1.07;;;;;;;-1.34;88.90;100481.75;5031031;28;20669;-73
2021/01/11 07:03:46;;;;;;;2.53;1.07;;;;;;;-1.30;88.93;100477.25;5032544;28;20211;-72
2021/01/11 07:06:32;;;;;;;1.40;0.97;;;;;;;-1.38;88.42;100468.69;5021311;28;20304;-73
2021/01/11 07:09:11;;;;;;;1.70;1.40;;;;;;;-1.41;88.05;100468.75;5034875;28;20199;-72
2021/01/11 07:11:39;;;;;;;0.40;0.40;;;;;;;-1.34;88.63;100475.63;5032290;28;20283;-73
2021/01/11 07:14:07;;;;;;;0.60;0.60;;;;;;;-1.31;88.73;100459.72;5031884;28;20572;-72
2021/01/11 07:16:42;;;;;;;2.40;0.70;;;;;;;-1.31;88.57;100455.34;5031560;28;20205;-73
2021/01/11 07:19:09;;;;;;;2.00;1.27;;;;;;;-1.35;88.62;100448.41;5031159;28;20397;-72
2021/01/11 07:21:37;;;;;;;3.70;2.80;;;;;;;-1.27;88.66;100451.72;5030834;28;20567;-72
2021/01/11 07:24:06;;;;;;;34.37;13.03;;;;;;;-1.26;88.63;100442.91;5024992;28;20214;-72
2021/01/11 07:26:35;;;;;;;10.83;3.73;;;;;;;-1.22;88.68;100443.72;5011675;28;20285;-73
2021/01/11 07:29:06;;;;;;;2.87;2.00;;;;;;;-1.18;88.57;100447.16;5029021;28;20210;-73
2021/01/11 07:31:35;;;;;;;18.53;4.37;;;;;;;-1.16;88.61;100438.31;5061053;28;20314;-73
2021/01/11 07:34:07;;;;;;;8.70;3.93;;;;;;;-1.14;88.68;100433.00;5015370;28;20300;-73
2021/01/11 07:36:37;;;;;;;5.87;1.90;;;;;;;-1.07;89.07;100438.06;5030572;28;20240;-72
2021/01/11 07:39:13;;;;;;;3.07;2.57;;;;;;;-1.21;89.01;100391.91;5059625;28;20211;-72
2021/01/11 07:41:42;;;;;;;6.97;2.47;;;;;;;-0.95;89.04;100427.19;5011077;28;20247;-73
2021/01/11 07:44:11;;;;;;;1.57;1.47;;;;;;;-0.87;88.96;100434.06;5026901;28;20209;-73
2021/01/11 07:46:39;;;;;;;8.50;1.77;;;;;;;-0.81;89.03;100426.00;5030509;28;20603;-72
2021/01/11 07:49:13;;;;;;;1.53;1.20;;;;;;;-0.80;88.78;100410.13;5014922;28;20211;-72
2021/01/11 07:51:41;;;;;;;2.63;2.10;;;;;;;-0.74;88.77;100417.00;5019333;28;20206;-72
2021/01/11 07:54:13;;;;;;;6.37;5.23;;;;;;;-0.69;89.00;100417.75;5030212;28;20535;-72
2021/01/11 07:56:40;;;;;;;4.27;1.50;;;;;;;-0.94;88.78;100352.50;5030652;28;20465;-72
2021/01/11 07:59:08;;;;;;;6.13;1.67;;;;;;;-0.59;89.01;100408.69;5030701;28;20202;-72
2021/01/11 08:01:38;;;;;;;2.43;1.17;;;;;;;-0.65;88.19;100398.28;5017439;28;20195;-73
2021/01/11 08:04:05;;;;;;;1.87;1.40;;;;;;;-0.71;87.71;100404.59;5030475;28;20295;-72
2021/01/11 08:06:45;;;;;;;1.13;0.90;;;;;;;-0.72;87.74;100397.59;5039656;28;20230;-72
2021/01/11 08:09:13;;;;;;;4.70;0.90;;;;;;;-0.77;87.51;100398.66;5017419;28;20223;-73
2021/01/11 08:11:41;;;;;;;0.57;0.50;;;;;;;-1.10;87.96;100343.31;5029393;28;20207;-72
2021/01/11 08:14:09;;;;;;;5.47;0.73;;;;;;;-0.80;87.65;100398.72;5018907;28;20626;-73
2021/01/11 08:16:38;;;;;;;0.97;0.97;;;;;;;-0.83;87.58;100390.91;5021924;28;20203;-72
2021/01/11 08:19:07;;;;;;;2.27;1.20;;;;;;;-0.86;87.52;100394.50;5020260;28;20204;-72
2021/01/11 08:21:34;;;;;;;1.50;1.23;;;;;;;-0.85;88.14;100390.09;5019576;28;20315;-73
2021/01/11 08:24:04;;;;;;;1.23;0.67;;;;;;;-0.85;87.74;100390.09;5019096;28;20208;-72
2021/01/11 08:26:34;;;;;;;4.60;1.30;;;;;;;-0.86;87.91;100375.19;5021778;28;20249;-72
2021/01/11 08:29:01;;;;;;;7.93;1.00;;;;;;;-0.84;87.87;100376.00;5023190;28;20203;-73
2021/01/11 08:31:29;;;;;;;5.07;1.37;;;;;;;-0.86;87.88;100373.41;5019547;28;20207;-72
2021/01/11 08:33:58;;;;;;;1.63;1.20;;;;;;;-0.77;88.30;100369.66;5019688;28;20241;-73
2021/01/11 08:36:25;;;;;;;1.53;1.10;;;;;;;-0.78;88.17;100365.28;5015415;28;20230;-73
2021/01/11 08:39:17;;;;;;;1.60;1.00;;;;;;;-0.76;88.15;100364.34;5017732;28;20203;-73
2021/01/11 08:41:48;;;;;;;2.00;1.40;;;;;;;-0.71;88.20;100361.56;5021222;28;20711;-72
2021/01/11 08:44:39;;;;;;;2.50;1.40;;;;;;;-0.68;88.38;100361.47;5021005;28;20214;-73
2021/01/11 08:47:08;;;;;;;3.93;1.70;;;;;;;-0.64;88.41;100357.84;4998941;28;20566;-73
2021/01/11 08:49:57;;;;;;;1.13;0.80;;;;;;;-0.65;88.25;100356.13;5018944;28;20195;-73
2021/01/11 08:52:29;;;;;;;2.17;1.30;;;;;;;-0.97;87.53;100302.53;5024188;28;20344;-73
2021/01/11 08:54:56;;;;;;;2.63;1.57;;;;;;;-0.64;87.96;100347.28;5017950;28;20226;-73
2021/01/11 08:57:27;;;;;;;3.70;1.27;;;;;;;-0.58;88.27;100341.88;5023776;28;20585;-73
2021/01/11 08:59:55;;;;;;;4.47;1.37;;;;;;;-0.56;88.22;100334.78;5019150;28;20654;-73
2021/01/11 09:02:24;;;;;;;23.97;6.17;;;;;;;-0.54;88.36;100332.09;5025106;28;20265;-73
2021/01/11 09:04:51;;;;;;;20.60;6.30;;;;;;;-0.49;88.58;100325.78;5018947;28;20260;-73
2021/01/11 09:07:26;;;;;;;18.53;3.33;;;;;;;-0.42;88.41;100327.31;5018734;28;20513;-73
2021/01/11 09:09:54;;;;;;;16.90;4.17;;;;;;;-0.40;88.90;100312.31;5022167;28;20203;-73
2021/01/11 09:12:30;;;;;;;15.23;4.07;;;;;;;-0.39;88.78;100310.53;5023367;28;20696;-73
2021/01/11 09:14:58;;;;;;;12.23;3.40;;;;;;;-0.30;88.57;100319.97;5020182;28;20195;-73
2021/01/11 09:17:27;;;;;;;15.93;3.63;;;;;;;-0.24;88.73;100314.50;5028492;28;20198;-73
2021/01/11 09:19:55;;;;;;;4.73;1.60;;;;;;;-0.29;88.49;100317.28;5021561;28;20205;-73
2021/01/11 09:22:30;;;;;;;6.20;1.90;;;;;;;-0.31;87.95;100313.78;5023652;28;20228;-73
2021/01/11 09:24:58;;;;;;;2.17;1.50;;;;;;;-0.49;87.38;100309.09;5018718;28;20200;-73
2021/01/11 09:27:25;;;;;;;6.20;2.37;;;;;;;-0.35;88.62;100299.84;5018868;28;20227;-73
2021/01/11 09:29:54;;;;;;;4.33;1.37;;;;;;;-0.26;88.01;100297.84;5022296;28;20555;-72
2021/01/11 09:32:21;;;;;;;1.67;0.70;;;;;;;-0.21;88.03;100298.56;5014846;28;20287;-72
2021/01/11 09:34:49;;;;;;;1.13;1.00;;;;;;;-0.47;87.66;100255.41;5016261;28;20241;-72
2021/01/11 09:37:17;;;;;;;2.27;0.60;;;;;;;-0.18;87.94;100287.94;5018512;28;20210;-73
2021/01/11 09:39:44;;;;;;;0.50;0.50;;;;;;;-0.16;88.09;100280.81;5018432;28;20233;-72
2021/01/11 09:42:11;;;;;;;0.57;0.33;;;;;;;-0.12;88.11;100269.25;5015338;28;20399;-72
2021/01/11 09:44:38;;;;;;;2.63;0.47;;;;;;;-0.07;88.20;100275.25;5017835;28;20295;-72
2021/01/11 09:47:10;;;;;;;1.87;0.60;;;;;;;-0.02;88.03;100265.41;5018737;28;20223;-72
2021/01/11 09:49:38;;;;;;;5.10;0.40;;;;;;;0.14;87.98;100266.63;5026375;28;20203;-73
2021/01/11 09:52:06;;;;;;;0.67;0.67;;;;;;;0.10;87.81;100265.03;5029218;28;20207;-72
2021/01/11 09:54:33;;;;;;;10.20;1.00;;;;;;;0.16;87.69;100261.31;5024699;28;20236;-73
2021/01/11 09:57:00;;;;;;;1.97;1.03;;;;;;;0.22;87.37;100261.97;5028874;28;20200;-72
2021/01/11 09:59:31;;;;;;;2.67;0.63;;;;;;;0.20;87.51;100258.50;5020035;28;20203;-73
2021/01/11 10:01:58;;;;;;;1.80;1.20;;;;;;;0.23;87.62;100246.97;5027037;28;20214;-72
2021/01/11 10:04:27;;;;;;;0.33;0.33;;;;;;;0.24;87.86;100244.28;5021559;28;20206;-72
2021/01/11 10:06:56;;;;;;;0.50;0.50;;;;;;;0.21;87.14;100249.69;5023513;28;20230;-72
2021/01/11 10:09:24;;;;;;;1.10;0.67;;;;;;;0.36;88.08;100236.88;5019141;28;20282;-72
2021/01/11 10:11:55;;;;;;;0.43;0.40;;;;;;;0.42;88.08;100231.38;5026843;28;20297;-72
2021/01/11 10:14:23;;;;;;;0.50;0.50;;;;;;;0.44;87.97;100222.50;5016701;28;20298;-72
2021/01/11 10:16:51;;;;;;;0.40;0.40;;;;;;;0.48;87.60;100226.75;5023034;28;20931;-72
2021/01/11 10:19:20;;;;;;;0.40;0.40;;;;;;;0.36;87.29;100195.50;5015710;28;20200;-73
2021/01/11 10:21:49;;;;;;;5.87;0.47;;;;;;;0.58;88.03;100219.34;5017156;28;20667;-72
2021/01/11 10:24:18;;;;;;;0.77;0.60;;;;;;;0.55;87.58;100212.41;5023581;28;20193;-72
2021/01/11 10:26:48;;;;;;;0.33;0.33;;;;;;;0.53;87.19;100210.75;5024744;28;20239;-72
2021/01/11 10:29:16;;;;;;;2.83;0.83;;;;;;;0.35;87.63;100203.47;5013833;28;20281;-72
2021/01/11 10:31:44;;;;;;;2.47;0.57;;;;;;;0.29;87.74;100189.53;5025657;28;20192;-73
2021/01/11 10:34:13;;;;;;;0.50;0.50;;;;;;;0.35;87.76;100193.78;5013042;28;20287;-72
2021/01/11 10:36:41;;;;;;;2.83;0.83;;;;;;;0.34;87.74;100191.19;5019212;28;20604;-73
2021/01/11 10:39:10;;;;;;;0.93;0.70;;;;;;;0.21;87.92;100186.31;5012674;28;20222;-73
2021/01/11 10:41:38;;;;;;;1.00;0.60;;;;;;;0.32;88.12;100177.19;5017504;28;20214;-73
2021/01/11 10:44:07;;;;;;;2.23;1.10;;;;;;;0.33;87.59;100150.72;5022020;28;20229;-73
2021/01/11 10:46:34;;;;;;;1.43;0.70;;;;;;;0.28;88.07;100156.13;5013253;28;20663;-73
2021/01/11 10:49:03;;;;;;;0.50;0.50;;;;;;;0.41;88.24;100138.09;5015252;28;20204;-72
2021/01/11 10:51:33;;;;;;;4.60;0.50;;;;;;;0.46;87.93;100128.22;5021838;28;20212;-73
2021/01/11 10:54:03;;;;;;;1.90;0.70;;;;;;;0.36;87.93;100126.00;5016584;28;20209;-73
2021/01/11 10:56:31;;;;;;;1.23;0.97;;;;;;;0.30;88.84;100106.78;5015670;28;20212;-72
2021/01/11 10:58:58;;;;;;;3.80;1.03;;;;;;;0.35;88.37;100111.91;5013805;28;20223;-72
2021/01/11 11:01:26;;;;;;;0.70;0.70;;;;;;;0.24;88.85;100101.72;5015681;28;20324;-72
2021/01/11 11:03:54;;;;;;;1.27;0.60;;;;;;;0.30;88.70;100085.66;5015296;28;20660;-71
2021/01/11 11:06:22;;;;;;;2.10;0.90;;;;;;;0.24;88.62;100085.88;5015727;28;20265;-72
2021/01/11 11:08:49;;;;;;;0.70;0.70;;;;;;;0.36;88.89;100073.19;5020264;28;20236;-72
2021/01/11 11:11:17;;;;;;;1.03;0.70;;;;;;;0.22;88.48;100066.59;5017273;28;20667;-72
2021/01/11 11:13:45;;;;;;;3.30;0.70;;;;;;;0.17;89.36;100051.84;5016563;28;20289;-72
2021/01/11 11:16:12;;;;;;;0.57;0.57;;;;;;;0.19;89.72;100050.88;5023234;28;20208;-71
2021/01/11 11:18:41;;;;;;;43.80;20.37;;;;;;;0.13;89.43;100045.84;5010024;28;20199;-71
2021/01/11 11:21:10;;;;;;;3.20;2.20;;;;;;;0.22;89.43;100034.06;5022316;28;20212;-71
2021/01/11 11:23:38;;;;;;;3.03;0.80;;;;;;;0.08;88.91;100009.97;5020391;28;20203;-72
2021/01/11 11:26:06;;;;;;;9.30;1.07;;;;;;;0.16;89.96;100023.75;5026172;28;20231;-71
2021/01/11 11:28:34;;;;;;;3.90;0.80;;;;;;;0.15;89.63;100012.31;5021830;28;20585;-72
2021/01/11 11:31:03;;;;;;;1.23;0.60;;;;;;;0.30;89.59;100011.72;5023931;28;20618;-71
2021/01/11 11:33:30;;;;;;;1.57;0.83;;;;;;;0.40;89.49;100003.50;5026355;28;20239;-72
2021/01/11 11:35:58;;;;;;;0.87;0.60;;;;;;;0.41;89.36;99997.28;5021183;28;20284;-72